Decoded Metar for LGIR (HERAKLION in GREECE) (IATA:HER) | Meteo·Mobile Aviation Weather
aviador You're here:

LGIR Decoded Metar

HERAKLION in GREECE
Report Time2019-08-21 17:20:00
UTC Time2019-08-21 17:46:50
Flight Rules vfr VFR
Wind300° at 12 kt
W.Decomp.*RWY 30: 12.0 kt HW 0.6 kt LCW
RWY 27: 10.7 kt HW 5.4 kt RCW
Visibility9999 m
Phenomena:N/A
Clouds:Few 025 Hf
Expected CloudBase > 2,400 ft AGL from Temp-Dew spread
CeilingNone
Temp26°C (ISA +11)
Dew Point20°C (70% RH)
AAT25.4°C
QNH1014 hPa
Density Alt1,703 ft
Elevation128 ft
Report Wrong Elevation
Raw Report
LGIR 211720Z 30012KT 9999 FEW025 26/20 Q1014 NOSIG=

Extra information for LGIR:More info

Metar Taf Metar & Taf Last 4 Metars F.Rules Stats Wind Profile Meteogram Temp Stats Airport Information Weather charts Add Link Nearby VenuesMetar ALERT Operation Metar Decoded Social comments